»·PEaware :: N446C S70-KDLS

N446C :: S70-KDLS

FLIGHT INFORMATION

Flight Status: Arrived
Operator: Privately registered:
United States
More flights under this callsign
Pilot: Bill H. (23183)
Aircraft: CESSNA 172 SKYHAWK
(C172)
More flights by this aircraft type
Origin: S70 Othello Mun
United States
Destination: KDLS Columbia Gorge Regl/The Dalle
United States
More flights between these airports :: More routes between these airports
Route: S70 - KDLS
File this flight plan on PilotEdge
Remarks: Practice Flight
Altitude:
(Current/Filed)
4,500ft
Speed:
(Current/Filed)
120kts
Departed: 17-Feb-19 12:36 PM
Arrived: 17-Feb-19 01:34 PM
Distance/Time
Traveled:
112nm/0:58
Distance/Time
To Go:
Arrived

Flight Plot

Page will automatically refresh every two minutes.

Flight plan parsing failed; only flown route is shown


Map Options




Map Legend


Flown Route
Filed Route
Departure Airport
Arrival Airport
Navaid (VOR, NDB)
Fix

Horizontal Profiles

Position Reports

Time Latitude Longitude Heading Altitude Ground
Speed
17-Feb-19 12:21 46.795232 -119.074857 1 1143ft 0kts
17-Feb-19 12:22 46.795232 -119.074857 1 1143ft 0kts
17-Feb-19 12:23 46.795232 -119.074857 1 1143ft 0kts
17-Feb-19 12:24 46.795232 -119.074857 1 1143ft 0kts
17-Feb-19 12:25 46.795232 -119.074857 1 1143ft 0kts
17-Feb-19 12:26 46.795232 -119.074857 1 1143ft 0kts
17-Feb-19 12:27 46.795232 -119.074857 1 1143ft 0kts
17-Feb-19 12:28 46.795398 -119.074774 55 1143ft 3kts
17-Feb-19 12:29 46.795397 -119.071257 90 1143ft 0kts
17-Feb-19 12:30 46.795389 -119.071639 271 1143ft 9kts
17-Feb-19 12:31 46.794790 -119.072136 181 1143ft 0kts
17-Feb-19 12:32 46.794789 -119.072136 180 1143ft 0kts
17-Feb-19 12:33 46.794790 -119.072136 181 1143ft 0kts
17-Feb-19 12:34 46.794100 -119.072547 268 1143ft 0kts
17-Feb-19 12:35 46.794182 -119.077291 271 1161ft 66kts
17-Feb-19 12:36 46.787612 -119.104228 210 1908ft 83kts
17-Feb-19 12:37 46.766166 -119.134339 230 2492ft 112kts
17-Feb-19 12:38 46.745521 -119.171828 231 3018ft 113kts
17-Feb-19 12:39 46.724760 -119.210045 231 3514ft 118kts
17-Feb-19 12:40 46.703869 -119.248569 231 3494ft 108kts
17-Feb-19 12:41 46.685015 -119.283202 231 3495ft 105kts
17-Feb-19 12:42 46.665311 -119.319361 231 3495ft 112kts
17-Feb-19 12:43 46.645187 -119.356243 231 3495ft 112kts
17-Feb-19 12:44 46.625182 -119.392855 231 3495ft 112kts
17-Feb-19 12:45 46.605179 -119.429416 231 3495ft 112kts
17-Feb-19 12:46 46.584841 -119.466526 231 3496ft 118kts
17-Feb-19 12:47 46.563336 -119.505726 231 3495ft 119kts
17-Feb-19 12:48 46.541699 -119.544421 230 3600ft 113kts
17-Feb-19 12:49 46.520852 -119.581850 231 4123ft 114kts
17-Feb-19 12:50 46.500132 -119.619459 231 4644ft 114kts
17-Feb-19 12:51 46.480209 -119.656420 231 5155ft 113kts
17-Feb-19 12:52 46.460879 -119.692115 231 5500ft 119kts
17-Feb-19 12:53 46.440182 -119.729882 231 5496ft 121kts
17-Feb-19 12:54 46.418572 -119.769037 231 5496ft 122kts
17-Feb-19 12:55 46.397401 -119.807294 231 5495ft 121kts
17-Feb-19 12:56 46.377909 -119.842456 231 5496ft 121kts
17-Feb-19 12:57 46.356717 -119.880630 231 5496ft 121kts
17-Feb-19 12:58 46.335326 -119.919067 230 5496ft 121kts
17-Feb-19 12:59 46.314360 -119.956702 230 5496ft 121kts
17-Feb-19 13:00 46.296337 -119.989031 230 5496ft 121kts
17-Feb-19 13:01 46.278503 -120.020987 230 5496ft 121kts
17-Feb-19 13:02 46.263072 -120.048608 230 5496ft 121kts
17-Feb-19 13:03 46.236013 -120.096944 230 5496ft 121kts
17-Feb-19 13:04 46.217846 -120.128109 230 5496ft 121kts
17-Feb-19 13:05 46.195146 -120.167935 230 5496ft 121kts
17-Feb-19 13:06 46.173224 -120.206821 230 5496ft 121kts
17-Feb-19 13:07 46.150704 -120.246854 231 5496ft 121kts
17-Feb-19 13:08 46.128562 -120.286187 231 5496ft 121kts
17-Feb-19 13:09 46.106509 -120.325286 231 5496ft 121kts
17-Feb-19 13:10 46.084384 -120.364452 231 5496ft 121kts
17-Feb-19 13:11 46.062446 -120.403232 231 5496ft 121kts
17-Feb-19 13:12 46.040597 -120.441802 231 5496ft 121kts
17-Feb-19 13:13 46.018315 -120.481080 231 5496ft 121kts
17-Feb-19 13:14 45.995314 -120.521565 230 5496ft 121kts
17-Feb-19 13:15 45.972389 -120.561805 230 5496ft 121kts
17-Feb-19 13:16 45.949881 -120.601300 230 5496ft 121kts
17-Feb-19 13:17 45.925887 -120.642537 229 5496ft 121kts
17-Feb-19 13:18 45.903290 -120.680135 228 5496ft 121kts
17-Feb-19 13:19 45.880978 -120.718274 230 5496ft 121kts
17-Feb-19 13:20 45.858243 -120.757880 230 5284ft 125kts
17-Feb-19 13:21 45.835433 -120.797568 230 4989ft 123kts
17-Feb-19 13:22 45.813889 -120.834978 230 5000ft 114kts
17-Feb-19 13:23 45.789885 -120.867962 222 5000ft 116kts
17-Feb-19 13:24 45.765180 -120.901248 223 4901ft 123kts
17-Feb-19 13:25 45.739248 -120.936366 223 4395ft 122kts
17-Feb-19 13:26 45.714822 -120.969578 223 3872ft 113kts
17-Feb-19 13:27 45.691584 -121.001255 223 3229ft 111kts
17-Feb-19 13:28 45.669348 -121.033568 228 2505ft 109kts
17-Feb-19 13:29 45.651003 -121.068619 234 1777ft 105kts
17-Feb-19 13:30 45.634457 -121.103008 232 962ft 96kts
17-Feb-19 13:31 45.623220 -121.131950 250 627ft 67kts
17-Feb-19 13:32 45.621237 -121.159884 267 268ft 67kts
17-Feb-19 13:33 45.620526 -121.171191 209 217ft 2kts
17-Feb-19 13:34 45.619361 -121.172540 264 218ft 9kts
17-Feb-19 13:35 45.618845 -121.174327 200 217ft 0kts
17-Feb-19 13:36 45.621356 -121.155699 266 322ft 69kts
17-Feb-19 13:37 45.618845 -121.174327 200 217ft 0kts
17-Feb-19 13:38 45.621157 -121.164841 267 230ft 54kts

Navigation Log

Ident Type
Flight plan parsing failed, navigation log unavailable